WMKI

Sultan Azlan Shah Airport

Ipoh, Malaysia
TAF WMKI 221100Z 2212/2312 07005KT 9999 FEW020 PROB30 TEMPO 2307/2311 21010KT 5000 TSRA FEW017CB
Issued Valid From Valid To
Jan-22 @ 11:00 UTC
(6 hours ago)
Jan-22 @ 12:00 UTC
(5 hours ago)
Jan-23 @ 12:00 UTC
(in 19 hours)
Jan-22 @ 12:00 to Jan-23 @ 12:00
TAF WMKI 221100Z 2212/2312 07005KT 9999 FEW020
Wind Visibility Clouds
70° at 5 knots 10,000+ meters
  • Few at 2,000' AGL
Temporary  (Probability 30%) Jan-23 @ 07:00 to Jan-23 @ 11:00
PROB30 TEMPO 2307/2311 21010KT 5000 TSRA FEW017CB
Wind Visibility Clouds Conditions
210° at 10 knots 5,005 meters
  • Few at 1,700' AGL
  • Thunderstorm
  • Rain
TAF WMKI 221100Z 2212/2312 07005KT 9999 FEW020 PROB30 TEMPO 2307/2311 21010KT 5000 TSRA FEW017CB
Issued Jan-22 @ 11:00 UTC
(6 hours ago)
Valid From Jan-22 @ 12:00 UTC
(5 hours ago)
Valid To Jan-23 @ 12:00 UTC
(in 19 hours)
Jan-22 @ 12:00 - Jan-23 @ 12:00
Wind Visibility
70° at 5 knots 10,000+ meters
Clouds
  • Few at 2,000' AGL
Probability 30% Temporary Jan-23 @ 07:00 - Jan-23 @ 11:00
Wind Visibility
210° at 10 knots 5,005 meters
Clouds
  • Few at 1,700' AGL
Conditions
  • Thunderstorm
  • Rain